KVPS/VPS METAR and TAF weather

Enter ICAO airport designator
Station Type Date Time Source
KVPS METAR 2021/08/04 19:56 UTC NOAA

KVPS 041956Z AUTO 08003KT 10SM FEW085 FEW190 27/24 A2992 RMK AO2 RAE13DZB13E18DZB18E18RAB42E44DZB44E48DZB48E48 SLP138 P0000 T02720238 $


Station Type Date Time Source
KVPS Decoded METAR 2021/08/04 19:56 UTC NOAA

Valparaiso / Eglin Air Force Base, FL, United States (KVPS) 30-29N 086-31W 29M
Aug 04, 2021 - 03:56 PM EDT / 2021.08.04 1956 UTC
Wind: from the E (080 degrees) at 3 MPH (3 KT):0
Visibility: 10 mile(s):0
Sky conditions: mostly clear
Precipitation last hour: A trace
Temperature: 81.0 F (27.2 C)
Dew Point: 74.8 F (23.8 C)
Relative Humidity: 81%
Pressure (altimeter): 29.92 in. Hg (1013 hPa)
ob: KVPS 041956Z AUTO 08003KT 10SM FEW085 FEW190 27/24 A2992 RMK AO2 RAE13DZB13E18DZB18E18RAB42E44DZB44E48DZB48E48 SLP138 P0000 T02720238
cycle: 20

Station Type Date Time Source
KVPS TAF 2021/08/04 17:03 UTC NOAA

TAF TAF KVPS 041700Z 0417/0523 08006KT 9999 VCSH SCT030 BKN065 QNH2995INS
BECMG 0417/0418 14009KT 9000 -SHRA VCTS SCT030CB BKN045 QNH2995INS
TEMPO 0418/0423 14010G15KT 8000 -TSRA SCT030CB BKN045 OVC065
BECMG 0423/0424 06008KT 9999 NSW SCT040 BKN055 QNH2994INS
BECMG 0509/0510 04008KT 9999 SCT010 BKN018 OVC025 QNH2993INS
BECMG 0515/0516 06008KT 9999 VCSH FEW030 BKN065 QNH2996INS TX31/0419Z TN23/0511Z

Example: see airport list